Terminal Aerodrome Forecast
Issued by NWS Atlanta, GA

Home | Current Version | Previous Version | Text Only | Print | Product List | Glossary On
Versions: 1 2 3 4 5 6 7 8 9 10 11 12 13 14 15 16 17 18 19 20
239
FTUS42 KFFC 271143
TAFMCN
TAF
KMCN 271143Z 2712/2812 17003KT 6SM BR FEW050 OVC150
     FM271400 21003KT P6SM FEW035 SCT150
     FM271700 27008KT P6SM VCSH SCT035 BKN120 PROB30 2722/2801 5SM
      -TSRA OVC025CB
     FM280100 30006KT P6SM SCT100
     FM280300 30004KT P6SM SKC
     FM281100 31004KT 5SM BR BKN250=

USA.gov is the U.S. government's official web portal to all federal, state and local government web resources and services.